Time;durP1;ratioP1;P1;durP2;ratioP2;P2;SDS_P1;SDS_P2;PMS_P1;PMS_P2;Temp;Humidity;BMP_temperature;BMP_pressure;BME280_temperature;BME280_humidity;BME280_pressure;Samples;Min_cycle;Max_cycle;Signal;HPM_P1;HPM_P2
2023/04/24 00:01:48;;;;;;;8.02;3.15;;;;;;;;;;5112954;28;20055;-63
2023/04/24 00:04:16;;;;;;;9.00;3.30;;;;;;;;;;5112561;28;20462;-62
2023/04/24 00:06:42;;;;;;;6.35;3.38;;;;;;;;;;5112076;28;20548;-61
2023/04/24 00:09:09;;;;;;;6.22;3.17;;;;;;;;;;5112591;28;20047;-61
2023/04/24 00:11:36;;;;;;;6.53;3.45;;;;;;;;;;5112322;28;20028;-62
2023/04/24 00:14:02;;;;;;;7.10;2.50;;;;;;;;;;5112179;28;20020;-62
2023/04/24 00:16:28;;;;;;;5.93;2.70;;;;;;;;;;5111755;28;20027;-64
2023/04/24 00:18:54;;;;;;;7.22;2.95;;;;;;;;;;5112231;27;20028;-61
2023/04/24 00:21:21;;;;;;;4.85;3.15;;;;;;;;;;5112263;28;20039;-62
2023/04/24 00:23:47;;;;;;;7.60;3.03;;;;;;;;;;5112584;28;20028;-61
2023/04/24 00:26:14;;;;;;;5.43;2.53;;;;;;;;;;5111782;28;20036;-62
2023/04/24 00:28:40;;;;;;;7.18;2.63;;;;;;;;;;5111508;28;20108;-62
2023/04/24 00:31:06;;;;;;;7.15;2.97;;;;;;;;;;5112038;28;20502;-63
2023/04/24 00:33:32;;;;;;;5.50;2.72;;;;;;;;;;5111758;28;20031;-65
2023/04/24 00:35:58;;;;;;;6.22;2.85;;;;;;;;;;5112054;28;20023;-63
2023/04/24 00:38:24;;;;;;;7.30;3.22;;;;;;;;;;5111780;28;20035;-64
2023/04/24 00:40:50;;;;;;;5.20;3.17;;;;;;;;;;5112270;28;20015;-62
2023/04/24 00:43:16;;;;;;;6.70;3.13;;;;;;;;;;5111865;28;20403;-62
2023/04/24 00:45:42;;;;;;;7.63;3.42;;;;;;;;;;5111314;28;20028;-63
2023/04/24 00:48:09;;;;;;;5.25;2.30;;;;;;;;;;5111734;28;20030;-62
2023/04/24 00:50:36;;;;;;;8.00;2.70;;;;;;;;;;5111543;28;20035;-62
2023/04/24 00:53:02;;;;;;;8.80;2.83;;;;;;;;;;5111515;28;20024;-61
2023/04/24 00:55:28;;;;;;;6.72;3.05;;;;;;;;;;5111517;28;20068;-62
2023/04/24 00:57:55;;;;;;;7.32;2.58;;;;;;;;;;5111818;28;20093;-61
2023/04/24 01:00:22;;;;;;;6.72;3.03;;;;;;;;;;5111918;28;20148;-61
2023/04/24 01:02:49;;;;;;;5.32;2.65;;;;;;;;;;5111702;28;20499;-62
2023/04/24 01:05:17;;;;;;;5.05;2.60;;;;;;;;;;5111581;28;20035;-62
2023/04/24 01:07:45;;;;;;;5.00;2.78;;;;;;;;;;5110969;28;20035;-62
2023/04/24 01:10:12;;;;;;;6.40;2.58;;;;;;;;;;5110898;28;20027;-61
2023/04/24 01:12:38;;;;;;;7.82;3.05;;;;;;;;;;5111304;28;20098;-63
2023/04/24 01:15:05;;;;;;;5.20;2.65;;;;;;;;;;5111453;28;20023;-62
2023/04/24 01:17:31;;;;;;;7.18;3.47;;;;;;;;;;5110989;28;20031;-62
2023/04/24 01:19:57;;;;;;;5.53;2.83;;;;;;;;;;5111171;28;20031;-62
2023/04/24 01:22:23;;;;;;;5.32;2.67;;;;;;;;;;5110887;28;20426;-63
2023/04/24 01:24:49;;;;;;;6.03;3.17;;;;;;;;;;5111565;28;20024;-64
2023/04/24 01:27:15;;;;;;;6.93;3.00;;;;;;;;;;5111337;28;20051;-66
2023/04/24 01:29:41;;;;;;;5.57;2.70;;;;;;;;;;5111224;28;20452;-61
2023/04/24 01:32:07;;;;;;;6.30;2.42;;;;;;;;;;5111361;28;20023;-61
2023/04/24 01:34:34;;;;;;;4.93;2.42;;;;;;;;;;5111090;28;20475;-61
2023/04/24 01:37:00;;;;;;;6.30;3.20;;;;;;;;;;5110946;28;20071;-62
2023/04/24 01:39:28;;;;;;;5.00;2.50;;;;;;;;;;5111084;28;20027;-61
2023/04/24 01:41:54;;;;;;;5.95;2.63;;;;;;;;;;5110714;28;20042;-64
2023/04/24 01:44:20;;;;;;;6.28;2.65;;;;;;;;;;5111442;28;20020;-63
2023/04/24 01:46:46;;;;;;;6.43;2.92;;;;;;;;;;5110140;28;20039;-67
2023/04/24 01:49:12;;;;;;;6.72;2.53;;;;;;;;;;5111274;28;20145;-61
2023/04/24 01:51:38;;;;;;;5.22;2.60;;;;;;;;;;5110878;28;20392;-61
2023/04/24 01:54:05;;;;;;;5.68;2.67;;;;;;;;;;5111105;28;20020;-62
2023/04/24 01:56:33;;;;;;;6.55;2.75;;;;;;;;;;5110627;28;20027;-61
2023/04/24 01:59:00;;;;;;;5.18;2.38;;;;;;;;;;5113751;28;20023;-61
2023/04/24 02:01:26;;;;;;;6.70;2.78;;;;;;;;;;5114701;28;20027;-64
2023/04/24 02:03:52;;;;;;;7.45;2.90;;;;;;;;;;5114949;28;20024;-61
2023/04/24 02:06:18;;;;;;;6.25;2.47;;;;;;;;;;5115241;28;20070;-61
2023/04/24 02:08:44;;;;;;;5.88;2.28;;;;;;;;;;5114651;28;20016;-69
2023/04/24 02:11:10;;;;;;;4.75;3.00;;;;;;;;;;5114778;28;20028;-65
2023/04/24 02:13:36;;;;;;;5.03;2.80;;;;;;;;;;5094090;28;20099;-64
2023/04/24 02:16:02;;;;;;;6.47;2.42;;;;;;;;;;5094358;28;20028;-69
2023/04/24 02:18:28;;;;;;;4.93;2.45;;;;;;;;;;5094164;28;20408;-69
2023/04/24 02:20:54;;;;;;;5.45;2.55;;;;;;;;;;5094035;28;20043;-63
2023/04/24 02:23:20;;;;;;;5.05;2.38;;;;;;;;;;5094593;28;20024;-65
2023/04/24 02:25:47;;;;;;;6.22;3.00;;;;;;;;;;5101196;28;20415;-62
2023/04/24 02:28:13;;;;;;;3.47;2.40;;;;;;;;;;5114527;28;20535;-64
2023/04/24 02:30:39;;;;;;;5.00;2.40;;;;;;;;;;5114301;28;20103;-62
2023/04/24 02:33:05;;;;;;;3.20;2.17;;;;;;;;;;5114338;28;20020;-66
2023/04/24 02:35:31;;;;;;;4.18;2.25;;;;;;;;;;5114147;28;20035;-61
2023/04/24 02:37:57;;;;;;;5.10;2.90;;;;;;;;;;5114350;28;20100;-63
2023/04/24 02:40:23;;;;;;;7.47;2.70;;;;;;;;;;5113660;28;20034;-61
2023/04/24 02:42:49;;;;;;;4.07;2.58;;;;;;;;;;5114490;28;20046;-62
2023/04/24 02:45:15;;;;;;;5.85;2.92;;;;;;;;;;5114074;28;20036;-67
2023/04/24 02:47:41;;;;;;;4.78;2.30;;;;;;;;;;5113953;28;20437;-63
2023/04/24 02:50:08;;;;;;;5.57;2.90;;;;;;;;;;5114105;28;20028;-62
2023/04/24 02:52:34;;;;;;;4.05;2.05;;;;;;;;;;5113768;28;20502;-60
2023/04/24 02:55:00;;;;;;;5.57;2.50;;;;;;;;;;5113598;28;20506;-61
2023/04/24 02:57:26;;;;;;;3.75;2.25;;;;;;;;;;5113738;28;20019;-66
2023/04/24 02:59:52;;;;;;;6.40;2.45;;;;;;;;;;5113838;28;20476;-66
2023/04/24 03:02:18;;;;;;;7.78;2.92;;;;;;;;;;5114169;27;20019;-64
2023/04/24 03:04:44;;;;;;;4.82;2.53;;;;;;;;;;5113437;28;20039;-63
2023/04/24 03:07:10;;;;;;;4.60;2.53;;;;;;;;;;5113912;28;20024;-63
2023/04/24 03:09:36;;;;;;;3.63;2.30;;;;;;;;;;5112942;28;20570;-61
2023/04/24 03:12:02;;;;;;;4.32;2.30;;;;;;;;;;5113623;27;20019;-61
2023/04/24 03:14:31;;;;;;;5.00;2.75;;;;;;;;;;5113422;28;20024;-63
2023/04/24 03:16:57;;;;;;;4.45;2.35;;;;;;;;;;5112167;28;20024;-64
2023/04/24 03:19:23;;;;;;;5.15;2.15;;;;;;;;;;5113280;28;20028;-61
2023/04/24 03:21:49;;;;;;;3.55;2.50;;;;;;;;;;5113675;28;20543;-63
2023/04/24 03:24:15;;;;;;;4.35;2.95;;;;;;;;;;5113105;28;20541;-61
2023/04/24 03:26:41;;;;;;;4.03;2.53;;;;;;;;;;5112674;28;20064;-61
2023/04/24 03:29:07;;;;;;;5.38;2.60;;;;;;;;;;5113431;28;20468;-61
2023/04/24 03:31:33;;;;;;;4.13;2.50;;;;;;;;;;5113011;28;20090;-61
2023/04/24 03:33:59;;;;;;;3.88;2.72;;;;;;;;;;5113119;28;20031;-62
2023/04/24 03:36:25;;;;;;;4.40;2.70;;;;;;;;;;5112903;28;20023;-63
2023/04/24 03:38:51;;;;;;;6.35;2.80;;;;;;;;;;5113094;28;20027;-64
2023/04/24 03:41:18;;;;;;;3.20;2.28;;;;;;;;;;5112887;28;20399;-63
2023/04/24 03:43:44;;;;;;;3.72;2.42;;;;;;;;;;5112371;28;20028;-61
2023/04/24 03:46:10;;;;;;;4.78;2.50;;;;;;;;;;5112910;28;20054;-64
2023/04/24 03:48:36;;;;;;;3.75;1.98;;;;;;;;;;5112737;28;20034;-65
2023/04/24 03:51:02;;;;;;;4.47;2.30;;;;;;;;;;5112902;28;20027;-65
2023/04/24 03:53:28;;;;;;;4.80;2.55;;;;;;;;;;5112588;28;20153;-64
2023/04/24 03:55:54;;;;;;;6.00;2.72;;;;;;;;;;5112234;28;20028;-61
2023/04/24 03:58:20;;;;;;;4.78;2.53;;;;;;;;;;5113068;28;20486;-62
2023/04/24 04:00:47;;;;;;;3.92;2.35;;;;;;;;;;5113270;28;20073;-62
2023/04/24 04:03:14;;;;;;;6.15;2.78;;;;;;;;;;5112832;28;20047;-61
2023/04/24 04:05:40;;;;;;;4.78;2.53;;;;;;;;;;5112238;28;20073;-65
2023/04/24 04:08:06;;;;;;;4.20;2.65;;;;;;;;;;5112556;28;20024;-68
2023/04/24 04:10:32;;;;;;;3.05;2.22;;;;;;;;;;5111878;28;20365;-65
2023/04/24 04:12:58;;;;;;;3.67;2.30;;;;;;;;;;5112451;28;20023;-63
2023/04/24 04:15:24;;;;;;;4.35;2.33;;;;;;;;;;5112215;28;20050;-61
2023/04/24 04:17:50;;;;;;;5.53;2.53;;;;;;;;;;5112789;28;20063;-61
2023/04/24 04:20:16;;;;;;;4.18;2.20;;;;;;;;;;5111964;28;20034;-63
2023/04/24 04:22:42;;;;;;;2.78;2.05;;;;;;;;;;5111579;28;20129;-65
2023/04/24 04:25:08;;;;;;;3.50;2.10;;;;;;;;;;5112137;28;20452;-61
2023/04/24 04:27:35;;;;;;;4.13;2.33;;;;;;;;;;5111931;28;20106;-61
2023/04/24 04:30:04;;;;;;;2.72;2.10;;;;;;;;;;5112261;28;20026;-63
2023/04/24 04:32:30;;;;;;;3.60;2.00;;;;;;;;;;5110628;28;20035;-61
2023/04/24 04:34:56;;;;;;;4.28;2.65;;;;;;;;;;5111999;28;20031;-61
2023/04/24 04:37:22;;;;;;;4.07;2.13;;;;;;;;;;5111256;28;20027;-63
2023/04/24 04:39:48;;;;;;;4.18;2.15;;;;;;;;;;5112246;28;20016;-62
2023/04/24 04:42:15;;;;;;;4.95;2.10;;;;;;;;;;5112003;28;20023;-62
2023/04/24 04:44:41;;;;;;;3.63;2.35;;;;;;;;;;5111649;28;20103;-63
2023/04/24 04:47:08;;;;;;;3.83;2.38;;;;;;;;;;5111881;28;20517;-63
2023/04/24 04:49:34;;;;;;;4.28;2.70;;;;;;;;;;5111543;28;20020;-61
2023/04/24 04:52:00;;;;;;;3.05;1.90;;;;;;;;;;5111191;28;20423;-61
2023/04/24 04:54:26;;;;;;;2.88;2.17;;;;;;;;;;5111442;28;20026;-64
2023/04/24 04:56:52;;;;;;;3.55;1.90;;;;;;;;;;5111696;28;20465;-62
2023/04/24 04:59:18;;;;;;;2.75;2.00;;;;;;;;;;5112022;28;20023;-62
2023/04/24 05:01:44;;;;;;;3.28;2.00;;;;;;;;;;5110908;28;20115;-61
2023/04/24 05:04:10;;;;;;;3.08;2.30;;;;;;;;;;5111690;28;20051;-62
2023/04/24 05:06:36;;;;;;;3.33;2.00;;;;;;;;;;5111325;28;20082;-64
2023/04/24 05:09:03;;;;;;;5.55;2.58;;;;;;;;;;5111633;28;20016;-61
2023/04/24 05:11:29;;;;;;;5.13;2.33;;;;;;;;;;5111411;28;20031;-61
2023/04/24 05:13:55;;;;;;;3.40;2.33;;;;;;;;;;5111650;28;20047;-64
2023/04/24 05:16:21;;;;;;;3.47;1.90;;;;;;;;;;5110301;28;20107;-61
2023/04/24 05:18:47;;;;;;;2.60;1.98;;;;;;;;;;5111744;28;20429;-61
2023/04/24 05:21:13;;;;;;;5.18;1.90;;;;;;;;;;5111293;28;20031;-61
2023/04/24 05:23:40;;;;;;;3.88;2.00;;;;;;;;;;5110738;28;20027;-61
2023/04/24 05:26:06;;;;;;;2.55;1.83;;;;;;;;;;5110869;28;20483;-62
2023/04/24 05:28:32;;;;;;;4.00;2.53;;;;;;;;;;5110821;28;20466;-63
2023/04/24 05:30:59;;;;;;;3.20;2.10;;;;;;;;;;5111414;28;20080;-61
2023/04/24 05:33:25;;;;;;;3.20;1.80;;;;;;;;;;5112362;28;20027;-61
2023/04/24 05:35:51;;;;;;;3.15;2.65;;;;;;;;;;5114851;28;20036;-60
2023/04/24 05:38:20;;;;;;;3.20;2.08;;;;;;;;;;5115424;27;20051;-61
2023/04/24 05:40:46;;;;;;;3.25;2.40;;;;;;;;;;5115430;27;20032;-62
2023/04/24 05:43:13;;;;;;;2.53;1.88;;;;;;;;;;5115073;28;20098;-61
2023/04/24 05:45:39;;;;;;;3.78;2.00;;;;;;;;;;5115220;28;20459;-61
2023/04/24 05:48:05;;;;;;;3.97;2.22;;;;;;;;;;5115408;27;20106;-61
2023/04/24 05:50:31;;;;;;;3.33;2.03;;;;;;;;;;5114751;28;20028;-62
2023/04/24 05:53:02;;;;;;;3.20;2.25;;;;;;;;;;5115409;28;20019;-61
2023/04/24 05:55:28;;;;;;;3.33;1.90;;;;;;;;;;5115079;28;20387;-62
2023/04/24 05:57:54;;;;;;;3.00;2.10;;;;;;;;;;5114840;28;20034;-61
2023/04/24 06:00:21;;;;;;;3.08;2.00;;;;;;;;;;5114313;28;20487;-61
2023/04/24 06:02:47;;;;;;;3.17;1.88;;;;;;;;;;5115192;28;20032;-64
2023/04/24 06:05:14;;;;;;;3.53;2.10;;;;;;;;;;5114994;28;20034;-61
2023/04/24 06:07:40;;;;;;;3.70;2.60;;;;;;;;;;5114868;28;20406;-60
2023/04/24 06:10:06;;;;;;;4.78;2.58;;;;;;;;;;5114698;28;20510;-61
2023/04/24 06:12:32;;;;;;;3.72;2.25;;;;;;;;;;5114474;28;20024;-61
2023/04/24 06:14:58;;;;;;;6.22;2.45;;;;;;;;;;5114877;28;20030;-61
2023/04/24 06:17:24;;;;;;;4.35;2.22;;;;;;;;;;5114370;28;20024;-64
2023/04/24 06:19:50;;;;;;;3.65;2.08;;;;;;;;;;5114857;28;20506;-63
2023/04/24 06:22:16;;;;;;;2.42;2.20;;;;;;;;;;5115196;28;20032;-61
2023/04/24 06:24:42;;;;;;;4.63;2.58;;;;;;;;;;5114251;27;20016;-62
2023/04/24 06:27:08;;;;;;;5.63;3.08;;;;;;;;;;5114630;28;20039;-61
2023/04/24 06:29:34;;;;;;;4.95;2.90;;;;;;;;;;5114450;28;20072;-61
2023/04/24 06:32:00;;;;;;;5.85;3.47;;;;;;;;;;5114174;28;20038;-60
2023/04/24 06:34:26;;;;;;;7.65;3.47;;;;;;;;;;5114388;28;20098;-68
2023/04/24 06:36:52;;;;;;;8.60;3.80;;;;;;;;;;5114434;28;20544;-61
2023/04/24 06:39:18;;;;;;;7.70;3.90;;;;;;;;;;5114789;27;20019;-61
2023/04/24 06:41:44;;;;;;;7.93;3.97;;;;;;;;;;5113947;28;20030;-68
2023/04/24 06:44:10;;;;;;;9.00;4.00;;;;;;;;;;5112244;28;20062;-61
2023/04/24 06:46:36;;;;;;;7.05;4.03;;;;;;;;;;5112550;28;20506;-61
2023/04/24 06:49:02;;;;;;;8.43;3.85;;;;;;;;;;5114426;28;20031;-62
2023/04/24 06:51:28;;;;;;;8.15;4.05;;;;;;;;;;5114019;28;20414;-63
2023/04/24 06:53:56;;;;;;;9.00;3.90;;;;;;;;;;5113862;28;20051;-61
2023/04/24 06:56:22;;;;;;;7.75;3.80;;;;;;;;;;5113901;27;20124;-61
2023/04/24 06:58:48;;;;;;;8.82;4.10;;;;;;;;;;5114357;27;20411;-62
2023/04/24 07:01:14;;;;;;;8.95;3.90;;;;;;;;;;5114072;28;20031;-62
2023/04/24 07:03:40;;;;;;;7.93;4.15;;;;;;;;;;5113657;28;20043;-61
2023/04/24 07:06:06;;;;;;;9.38;3.97;;;;;;;;;;5113217;27;20499;-63
2023/04/24 07:08:32;;;;;;;6.20;3.97;;;;;;;;;;5127747;27;20033;-62
2023/04/24 07:10:59;;;;;;;9.82;4.68;;;;;;;;;;5124939;27;20024;-62
2023/04/24 07:13:26;;;;;;;9.45;4.25;;;;;;;;;;5116351;27;20024;-63
2023/04/24 07:15:53;;;;;;;9.05;4.22;;;;;;;;;;5112805;28;20491;-61
2023/04/24 07:18:19;;;;;;;7.75;4.13;;;;;;;;;;5114142;28;20088;-63
2023/04/24 07:20:45;;;;;;;6.72;3.90;;;;;;;;;;5110672;28;20051;-62
2023/04/24 07:23:11;;;;;;;6.78;3.85;;;;;;;;;;5110685;27;20066;-61
2023/04/24 07:25:38;;;;;;;7.63;4.00;;;;;;;;;;5108723;28;20035;-61
2023/04/24 07:28:04;;;;;;;8.95;3.78;;;;;;;;;;5107931;28;20372;-61
2023/04/24 07:30:32;;;;;;;10.65;3.78;;;;;;;;;;5108046;28;21572;-62
2023/04/24 07:32:58;;;;;;;8.20;4.00;;;;;;;;;;5107862;28;20522;-61
2023/04/24 07:35:25;;;;;;;11.93;4.32;;;;;;;;;;5108229;28;20110;-65
2023/04/24 07:37:52;;;;;;;9.40;4.43;;;;;;;;;;5107886;28;20023;-63
2023/04/24 07:40:18;;;;;;;6.88;3.78;;;;;;;;;;5108740;28;20448;-62
2023/04/24 07:42:44;;;;;;;7.63;4.07;;;;;;;;;;5108957;28;20101;-60
2023/04/24 07:45:10;;;;;;;7.43;3.65;;;;;;;;;;5110936;28;20563;-61
2023/04/24 07:47:37;;;;;;;10.45;4.55;;;;;;;;;;5111182;28;20074;-65
2023/04/24 07:50:04;;;;;;;8.48;4.85;;;;;;;;;;5110194;28;20555;-62
2023/04/24 07:52:30;;;;;;;8.02;4.63;;;;;;;;;;5112666;28;20049;-61
2023/04/24 07:55:00;;;;;;;7.18;4.22;;;;;;;;;;5111818;28;20028;-61
2023/04/24 07:57:26;;;;;;;9.38;4.53;;;;;;;;;;5110676;28;20023;-62
2023/04/24 07:59:52;;;;;;;7.60;4.28;;;;;;;;;;5108309;27;20023;-67
2023/04/24 08:02:18;;;;;;;7.40;4.10;;;;;;;;;;5110695;28;20454;-61
2023/04/24 08:04:44;;;;;;;7.40;4.05;;;;;;;;;;5108111;28;20070;-61
2023/04/24 08:07:10;;;;;;;7.45;4.28;;;;;;;;;;5107751;28;20054;-61
2023/04/24 08:09:36;;;;;;;7.93;4.25;;;;;;;;;;5107181;28;20168;-62
2023/04/24 08:12:02;;;;;;;8.15;4.05;;;;;;;;;;5107864;28;21854;-61
2023/04/24 08:14:28;;;;;;;8.23;4.40;;;;;;;;;;5108733;28;20503;-61
2023/04/24 08:17:00;;;;;;;7.32;4.53;;;;;;;;;;5112038;28;20057;-64
2023/04/24 08:19:26;;;;;;;7.22;4.30;;;;;;;;;;5110981;28;20032;-63
2023/04/24 08:21:52;;;;;;;8.57;4.82;;;;;;;;;;5108916;28;20102;-62
2023/04/24 08:24:18;;;;;;;8.13;4.20;;;;;;;;;;5108025;28;20189;-62
2023/04/24 08:26:44;;;;;;;13.35;4.88;;;;;;;;;;5108056;28;20568;-61
2023/04/24 08:29:10;;;;;;;9.80;4.82;;;;;;;;;;5108072;28;20028;-63
2023/04/24 08:31:36;;;;;;;9.20;4.80;;;;;;;;;;5110483;28;20080;-61
2023/04/24 08:34:02;;;;;;;9.60;4.63;;;;;;;;;;5111435;28;20479;-62
2023/04/24 08:36:28;;;;;;;6.82;3.88;;;;;;;;;;5110000;28;20407;-66
2023/04/24 08:38:54;;;;;;;7.10;4.10;;;;;;;;;;5111670;28;20024;-61
2023/04/24 08:41:21;;;;;;;9.52;4.93;;;;;;;;;;5108215;28;20020;-62
2023/04/24 08:43:47;;;;;;;6.78;4.15;;;;;;;;;;5108863;28;20137;-61
2023/04/24 08:46:13;;;;;;;10.07;4.20;;;;;;;;;;5107605;28;20035;-67
2023/04/24 08:48:40;;;;;;;7.07;3.70;;;;;;;;;;5107549;28;20058;-64
2023/04/24 08:51:09;;;;;;;9.00;4.75;;;;;;;;;;5108068;28;20028;-63
2023/04/24 08:53:36;;;;;;;6.70;4.10;;;;;;;;;;5107388;28;20118;-62
2023/04/24 08:56:02;;;;;;;6.47;3.70;;;;;;;;;;5110021;28;20028;-61
2023/04/24 08:58:28;;;;;;;6.28;4.40;;;;;;;;;;5110284;28;20016;-62
2023/04/24 09:00:55;;;;;;;6.97;4.30;;;;;;;;;;5110251;28;20028;-63
2023/04/24 09:03:21;;;;;;;5.97;4.20;;;;;;;;;;5108359;28;20090;-62
2023/04/24 09:05:49;;;;;;;8.88;4.60;;;;;;;;;;5107760;28;20032;-61
2023/04/24 09:08:16;;;;;;;6.93;4.13;;;;;;;;;;5106365;28;20042;-62
2023/04/24 09:10:43;;;;;;;7.03;4.03;;;;;;;;;;5106638;28;20123;-61
2023/04/24 09:13:09;;;;;;;8.40;4.28;;;;;;;;;;5107215;28;20019;-61
2023/04/24 09:15:36;;;;;;;6.50;4.20;;;;;;;;;;5106476;28;20022;-61
2023/04/24 09:18:02;;;;;;;7.55;4.18;;;;;;;;;;5107193;28;20028;-61
2023/04/24 09:20:28;;;;;;;6.60;4.32;;;;;;;;;;5109736;28;20027;-61
2023/04/24 09:22:55;;;;;;;6.05;3.55;;;;;;;;;;5111271;28;20035;-62
2023/04/24 09:25:21;;;;;;;6.43;4.18;;;;;;;;;;5107781;28;20039;-61
2023/04/24 09:27:47;;;;;;;7.03;3.97;;;;;;;;;;5107457;28;20032;-63
2023/04/24 09:30:14;;;;;;;7.07;4.47;;;;;;;;;;5109486;28;20140;-61
2023/04/24 09:32:41;;;;;;;6.60;4.35;;;;;;;;;;5106537;28;20506;-61
2023/04/24 09:35:08;;;;;;;7.18;4.57;;;;;;;;;;5107235;28;20064;-61
2023/04/24 09:37:52;;;;;;;7.57;4.75;;;;;;;;;;5107129;28;20031;-61
2023/04/24 09:40:19;;;;;;;7.47;3.70;;;;;;;;;;5106438;28;20048;-61
2023/04/24 09:42:46;;;;;;;6.15;4.00;;;;;;;;;;5107124;28;20024;-61
2023/04/24 09:45:12;;;;;;;6.15;4.00;;;;;;;;;;5107835;28;20039;-61
2023/04/24 09:47:41;;;;;;;6.88;3.85;;;;;;;;;;5108791;28;20027;-61
2023/04/24 09:50:14;;;;;;;6.65;3.88;;;;;;;;;;5107120;28;20024;-61
2023/04/24 09:52:41;;;;;;;5.22;3.50;;;;;;;;;;5106865;28;20028;-62
2023/04/24 09:55:20;;;;;;;5.13;2.95;;;;;;;;;;5107078;28;20059;-64
2023/04/24 09:57:55;;;;;;;7.68;3.63;;;;;;;;;;5108812;28;20016;-61
2023/04/24 10:00:29;;;;;;;5.10;3.80;;;;;;;;;;5107532;28;20032;-62
2023/04/24 10:02:56;;;;;;;7.07;3.70;;;;;;;;;;5106028;28;20037;-63
2023/04/24 10:05:24;;;;;;;10.93;4.65;;;;;;;;;;5105646;28;20388;-61
2023/04/24 10:07:50;;;;;;;8.95;4.15;;;;;;;;;;5107304;28;20024;-61
2023/04/24 10:10:17;;;;;;;8.10;4.18;;;;;;;;;;5106727;28;20029;-62
2023/04/24 10:12:43;;;;;;;7.82;4.65;;;;;;;;;;5106759;28;20028;-61
2023/04/24 10:15:12;;;;;;;6.53;4.00;;;;;;;;;;5109023;28;20103;-61
2023/04/24 10:17:38;;;;;;;5.53;4.30;;;;;;;;;;5109591;28;20399;-61
2023/04/24 10:20:06;;;;;;;5.63;4.05;;;;;;;;;;5113228;28;20035;-61
2023/04/24 10:22:32;;;;;;;9.93;4.78;;;;;;;;;;5113674;28;20034;-60
2023/04/24 10:24:59;;;;;;;5.55;4.32;;;;;;;;;;5113338;28;20028;-61
2023/04/24 10:27:27;;;;;;;7.55;4.47;;;;;;;;;;5112748;28;20550;-61
2023/04/24 10:29:53;;;;;;;7.60;4.38;;;;;;;;;;5114052;28;20430;-61
2023/04/24 10:32:19;;;;;;;7.75;4.50;;;;;;;;;;5114409;28;20122;-64
2023/04/24 10:34:45;;;;;;;8.48;4.63;;;;;;;;;;5113936;28;20062;-62
2023/04/24 10:37:13;;;;;;;7.68;4.13;;;;;;;;;;5112932;28;20032;-61
2023/04/24 10:39:40;;;;;;;8.07;4.35;;;;;;;;;;5112584;28;20023;-62
2023/04/24 10:42:16;;;;;;;7.25;4.20;;;;;;;;;;5112104;28;20038;-61
2023/04/24 10:44:42;;;;;;;;;;;;;;;;;;5114068;28;20115;-61
2023/04/24 10:47:14;;;;;;;6.55;3.83;;;;;;;;;;5113582;28;20006;-63
2023/04/24 10:49:40;;;;;;;5.82;4.22;;;;;;;;;;5114239;28;20480;-61
2023/04/24 10:52:06;;;;;;;5.97;3.78;;;;;;;;;;5113580;28;20491;-64
2023/04/24 10:54:36;;;;;;;6.55;3.85;;;;;;;;;;5114128;28;20025;-63
2023/04/24 10:57:21;;;;;;;7.30;4.72;;;;;;;;;;5113648;28;20036;-62
2023/04/24 10:59:51;;;;;;;6.75;4.60;;;;;;;;;;5114406;28;20035;-61
2023/04/24 11:02:18;;;;;;;8.43;3.72;;;;;;;;;;5114456;28;20019;-61
2023/04/24 11:04:47;;;;;;;7.20;4.03;;;;;;;;;;5113739;28;20034;-61
2023/04/24 11:07:14;;;;;;;9.75;4.15;;;;;;;;;;5112319;27;20635;-61
2023/04/24 11:09:42;;;;;;;5.10;3.17;;;;;;;;;;5115337;27;20027;-62
2023/04/24 11:12:10;;;;;;;6.32;4.30;;;;;;;;;;5115381;27;20061;-62
2023/04/24 11:14:55;;;;;;;7.38;4.60;;;;;;;;;;5120694;27;20035;-61
2023/04/24 11:17:34;;;;;;;9.02;3.80;;;;;;;;;;5114813;27;20080;-61
2023/04/24 11:20:06;;;;;;;7.30;3.90;;;;;;;;;;5113967;27;20024;-61
2023/04/24 11:22:35;;;;;;;5.00;3.90;;;;;;;;;;5113380;27;20031;-61
2023/04/24 11:25:04;;;;;;;5.50;4.10;;;;;;;;;;5111947;27;20490;-62
2023/04/24 11:27:32;;;;;;;5.63;3.72;;;;;;;;;;5110213;28;20085;-62
2023/04/24 11:29:59;;;;;;;7.38;4.28;;;;;;;;;;5110803;28;20560;-62
2023/04/24 11:32:25;;;;;;;7.93;4.40;;;;;;;;;;5110260;28;20062;-61
2023/04/24 11:34:52;;;;;;;7.15;4.20;;;;;;;;;;5112072;28;20016;-61
2023/04/24 11:37:18;;;;;;;10.30;4.05;;;;;;;;;;5112147;27;20368;-61
2023/04/24 11:39:44;;;;;;;7.78;4.05;;;;;;;;;;5110933;28;20046;-61
2023/04/24 11:42:10;;;;;;;7.88;4.80;;;;;;;;;;5111568;28;20475;-62
2023/04/24 11:44:39;;;;;;;5.85;3.88;;;;;;;;;;5111223;28;20016;-61
2023/04/24 11:47:06;;;;;;;6.25;3.88;;;;;;;;;;5110454;28;20036;-62
2023/04/24 11:49:33;;;;;;;6.43;3.65;;;;;;;;;;5112195;28;20429;-62
2023/04/24 11:52:01;;;;;;;12.40;4.28;;;;;;;;;;5113080;28;20027;-61
2023/04/24 11:54:27;;;;;;;7.22;3.38;;;;;;;;;;5112850;27;20023;-62
2023/04/24 11:56:53;;;;;;;4.03;3.28;;;;;;;;;;5113862;28;20016;-61
2023/04/24 11:59:19;;;;;;;5.30;3.92;;;;;;;;;;5113369;28;20391;-61
2023/04/24 12:01:45;;;;;;;6.78;3.97;;;;;;;;;;5112654;28;20016;-61
2023/04/24 12:04:12;;;;;;;6.38;4.00;;;;;;;;;;5112973;28;20043;-63
2023/04/24 12:06:38;;;;;;;6.72;3.83;;;;;;;;;;5112524;28;20038;-61
2023/04/24 12:09:04;;;;;;;6.15;4.07;;;;;;;;;;5112838;28;20031;-62
2023/04/24 12:11:30;;;;;;;5.38;4.00;;;;;;;;;;5112186;28;20031;-62
2023/04/24 12:13:56;;;;;;;5.57;4.10;;;;;;;;;;5111654;28;20487;-61
2023/04/24 12:16:22;;;;;;;6.20;4.28;;;;;;;;;;5112325;28;20392;-61
2023/04/24 12:18:48;;;;;;;5.82;3.97;;;;;;;;;;5112375;28;20031;-62
2023/04/24 12:21:17;;;;;;;5.85;4.25;;;;;;;;;;5112328;28;20032;-63
2023/04/24 12:23:45;;;;;;;5.82;3.75;;;;;;;;;;5111611;28;20023;-62
2023/04/24 12:26:13;;;;;;;4.82;3.45;;;;;;;;;;5112070;28;20100;-62
2023/04/24 12:28:39;;;;;;;6.65;4.32;;;;;;;;;;5111709;28;20545;-61
2023/04/24 12:31:06;;;;;;;6.75;4.25;;;;;;;;;;5112324;28;20028;-62
2023/04/24 12:33:36;;;;;;;5.80;4.30;;;;;;;;;;5112013;28;20098;-61
2023/04/24 12:36:02;;;;;;;6.45;4.22;;;;;;;;;;5112108;28;20038;-62
2023/04/24 12:38:39;;;;;;;6.18;3.83;;;;;;;;;;5111426;28;20201;-68
2023/04/24 12:41:10;;;;;;;6.13;4.03;;;;;;;;;;5111764;28;20032;-62
2023/04/24 12:43:36;;;;;;;5.53;3.85;;;;;;;;;;5111710;28;20074;-62
2023/04/24 12:46:02;;;;;;;5.68;4.28;;;;;;;;;;5112000;28;20423;-61
2023/04/24 12:48:29;;;;;;;6.10;4.03;;;;;;;;;;5111155;28;20035;-62
2023/04/24 12:50:56;;;;;;;6.72;4.30;;;;;;;;;;5111531;28;20051;-63
2023/04/24 12:53:22;;;;;;;4.68;3.85;;;;;;;;;;5111538;28;20035;-63
2023/04/24 12:55:52;;;;;;;4.30;3.65;;;;;;;;;;5112243;28;20020;-63
2023/04/24 12:58:19;;;;;;;5.68;4.13;;;;;;;;;;5111316;28;20032;-62
2023/04/24 13:00:46;;;;;;;6.40;4.28;;;;;;;;;;5111623;28;20016;-61
2023/04/24 13:03:12;;;;;;;5.78;4.13;;;;;;;;;;5111769;28;20065;-61
2023/04/24 13:05:38;;;;;;;6.63;3.78;;;;;;;;;;5111414;28;20476;-64
2023/04/24 13:08:04;;;;;;;4.75;3.92;;;;;;;;;;5111229;28;20035;-61
2023/04/24 13:10:30;;;;;;;8.73;4.53;;;;;;;;;;5111474;28;20170;-61
2023/04/24 13:12:56;;;;;;;8.57;4.50;;;;;;;;;;5111809;28;20032;-62
2023/04/24 13:15:22;;;;;;;5.60;3.55;;;;;;;;;;5111410;28;20047;-64
2023/04/24 13:17:48;;;;;;;5.75;4.35;;;;;;;;;;5111592;28;20047;-63
2023/04/24 13:20:14;;;;;;;5.57;4.07;;;;;;;;;;5111456;28;20576;-61
2023/04/24 13:22:40;;;;;;;4.70;3.78;;;;;;;;;;5110294;28;20097;-64
2023/04/24 13:25:06;;;;;;;5.78;4.47;;;;;;;;;;5111428;28;20036;-64
2023/04/24 13:27:32;;;;;;;4.63;3.58;;;;;;;;;;5111190;28;20028;-63
2023/04/24 13:29:59;;;;;;;6.88;4.07;;;;;;;;;;5111471;28;20031;-61
2023/04/24 13:32:25;;;;;;;5.10;3.63;;;;;;;;;;5110730;28;20433;-64
2023/04/24 13:34:51;;;;;;;5.20;4.22;;;;;;;;;;5111000;28;20081;-62
2023/04/24 13:37:17;;;;;;;5.70;4.03;;;;;;;;;;5111589;28;20024;-62
2023/04/24 13:39:43;;;;;;;5.28;3.90;;;;;;;;;;5110427;28;20088;-64
2023/04/24 13:42:09;;;;;;;5.35;4.18;;;;;;;;;;5110476;28;20502;-64
2023/04/24 13:44:35;;;;;;;6.20;3.92;;;;;;;;;;5111056;28;20483;-62
2023/04/24 13:47:01;;;;;;;4.88;3.88;;;;;;;;;;5111206;28;20032;-62
2023/04/24 13:49:27;;;;;;;4.20;3.70;;;;;;;;;;5110371;28;20027;-64
2023/04/24 13:51:54;;;;;;;5.10;4.40;;;;;;;;;;5109726;28;20028;-62
2023/04/24 13:54:20;;;;;;;6.07;3.58;;;;;;;;;;5113128;28;20430;-61
2023/04/24 13:56:46;;;;;;;5.97;4.32;;;;;;;;;;5113936;28;20023;-62
2023/04/24 13:59:15;;;;;;;4.03;3.00;;;;;;;;;;5114115;28;20087;-62
2023/04/24 14:01:41;;;;;;;4.65;4.10;;;;;;;;;;5113362;28;20042;-63
2023/04/24 14:04:07;;;;;;;5.50;3.78;;;;;;;;;;5114235;28;20069;-62
2023/04/24 14:06:33;;;;;;;5.50;3.85;;;;;;;;;;5113997;28;20486;-62
2023/04/24 14:09:00;;;;;;;5.18;3.45;;;;;;;;;;5114517;27;20023;-61
2023/04/24 14:11:27;;;;;;;5.82;3.78;;;;;;;;;;5114686;28;20030;-61
2023/04/24 14:13:54;;;;;;;6.00;3.60;;;;;;;;;;5114661;28;20437;-64
2023/04/24 14:16:20;;;;;;;3.78;3.22;;;;;;;;;;5114491;28;20458;-63
2023/04/24 14:18:46;;;;;;;4.97;4.18;;;;;;;;;;5114766;28;20103;-62
2023/04/24 14:21:12;;;;;;;4.35;3.72;;;;;;;;;;5114706;28;20067;-62
2023/04/24 14:23:38;;;;;;;4.68;3.75;;;;;;;;;;5114409;28;20085;-61
2023/04/24 14:26:04;;;;;;;4.88;4.00;;;;;;;;;;5113686;28;20031;-61
2023/04/24 14:28:30;;;;;;;4.60;3.53;;;;;;;;;;5114514;28;20051;-61
2023/04/24 14:30:56;;;;;;;4.88;3.58;;;;;;;;;;5114569;28;20467;-61
2023/04/24 14:33:22;;;;;;;6.13;3.30;;;;;;;;;;5114370;28;20036;-61
2023/04/24 14:35:48;;;;;;;4.00;3.55;;;;;;;;;;5114568;28;20031;-63
2023/04/24 14:38:15;;;;;;;4.70;3.47;;;;;;;;;;5113349;28;20031;-61
2023/04/24 14:40:41;;;;;;;4.03;3.22;;;;;;;;;;5113771;28;20027;-62